Jun Ma 2 — BSPI — position and weather

sailwx.info

Track history (hours):
 
Tides and Currents Weather Stations Pressure Air Temp Water Temp Dewpoint Dewpoint Depression Visibility Wind Speed Wind Dir Waves Ship Positions

Jun Ma 2

Last reported at 2017-Sep-25 05:58 UTC. Time now 2017-Sep-25 06:19 UTC.
Position N 05°38' E 000°01'.

Length 87 m.

MMSI: 412052630.

Date/timePositionNaut miles runAvg speedWind from/ knotsBaromVisibWave heightAir tempDewpointWater temp
2017-Sep-25 05:58N 05°38' E 000°01'0 0.0
2017-Sep-25 05:28N 05°38' E 000°01'0 0.0
2017-Sep-25 04:58N 05°38' E 000°01'0 0.0
2017-Sep-25 04:28N 05°38' E 000°01'0 0.0
2017-Sep-25 03:58N 05°38' E 000°01'0 0.0
2017-Sep-25 03:28N 05°38' E 000°01'0 0.0
2017-Sep-25 02:58N 05°38' E 000°01'0 0.0
2017-Sep-25 02:28N 05°38' E 000°01'0 0.0
2017-Sep-25 01:58N 05°38' E 000°01'0 0.0
2017-Sep-25 01:28N 05°38' E 000°01'0 0.0
2017-Sep-25 00:58N 05°38' E 000°01'0 0.0
2017-Sep-25 00:28N 05°38' E 000°01'0 0.0
2017-Sep-24 23:58N 05°38' E 000°01'0 0.0
2017-Sep-24 23:28N 05°38' E 000°01'0 0.0
2017-Sep-24 22:58N 05°38' E 000°01'0 0.0
2017-Sep-24 22:25N 05°38' E 000°01'0 0.0
2017-Sep-24 21:58N 05°38' E 000°01'0 0.0
2017-Sep-24 21:28N 05°38' E 000°01'0 0.0
2017-Sep-24 20:58N 05°38' E 000°01'0 0.0
2017-Sep-24 20:28N 05°38' E 000°01'0 0.0
2017-Sep-24 19:58N 05°38' E 000°01'0 0.0
2017-Sep-24 19:28N 05°38' E 000°01'0 0.0
2017-Sep-24 18:58N 05°38' E 000°01'0 0.0
2017-Sep-24 18:28N 05°38' E 000°01'0 0.0
2017-Sep-24 17:58N 05°38' E 000°01'0 0.0
2017-Sep-24 17:28N 05°38' E 000°01'0 0.0
2017-Sep-24 16:58N 05°38' E 000°01'0 0.0
2017-Sep-24 16:28N 05°38' E 000°01'0 0.0
2017-Sep-24 15:58N 05°38' E 000°01'0 0.0
2017-Sep-24 15:28N 05°38' E 000°01'0 0.0
2017-Sep-24 14:58N 05°38' E 000°01'0 0.0
2017-Sep-24 14:28N 05°38' E 000°01'0 0.0
2017-Sep-24 13:58N 05°38' E 000°01'0 0.0
2017-Sep-24 13:28N 05°38' E 000°01'0 0.0
2017-Sep-24 12:58N 05°38' E 000°01'0 0.0
2017-Sep-24 12:28N 05°38' E 000°01'0 0.0
2017-Sep-24 11:58N 05°38' E 000°01'0 0.0
2017-Sep-24 11:28N 05°38' E 000°01'0 0.0
2017-Sep-24 10:58N 05°38' E 000°01'0 0.0
2017-Sep-24 10:28N 05°38' E 000°01'0 0.0
2017-Sep-24 09:58N 05°38' E 000°01'0 0.0
2017-Sep-24 09:28N 05°38' E 000°01'0 0.0
2017-Sep-24 08:58N 05°38' E 000°01'0 0.0
2017-Sep-24 08:28N 05°38' E 000°01'0 0.0
2017-Sep-24 07:58N 05°38' E 000°01'0 0.0
2017-Sep-24 07:28N 05°38' E 000°01'0 0.0
2017-Sep-24 06:58N 05°38' E 000°01'0 0.0
2017-Sep-24 06:28N 05°38' E 000°01'0 0.0
2017-Sep-24 05:58N 05°38' E 000°01'0 0.0
2017-Sep-24 05:28N 05°38' E 000°01'0 0.0
2017-Sep-24 04:58N 05°38' E 000°01'0 0.0
2017-Sep-24 04:28N 05°38' E 000°01'0 0.0
2017-Sep-24 03:58N 05°38' E 000°01'0 0.0
2017-Sep-24 03:28N 05°38' E 000°01'0 0.0
2017-Sep-24 02:58N 05°38' E 000°01'0 0.0
2017-Sep-24 02:28N 05°38' E 000°01'0 0.0
2017-Sep-24 01:58N 05°38' E 000°01'0 0.0
2017-Sep-24 01:28N 05°38' E 000°01'0 0.0
2017-Sep-24 00:58N 05°38' E 000°01'0 0.0
2017-Sep-24 00:28N 05°38' E 000°01'0 0.0
2017-Sep-23 23:58N 05°38' E 000°01'0 0.0
2017-Sep-23 23:28N 05°38' E 000°01'0 0.0
2017-Sep-23 22:58N 05°38' E 000°01'0 0.0
2017-Sep-23 22:28N 05°38' E 000°01'0 0.0
2017-Sep-23 21:58N 05°38' E 000°01'0 0.0
2017-Sep-23 21:28N 05°38' E 000°01'0 0.0
2017-Sep-23 20:58N 05°38' E 000°01'0 0.0
2017-Sep-23 20:28N 05°38' E 000°01'0 0.0
2017-Sep-23 19:58N 05°38' E 000°01'2 0.0
2017-Sep-22 02:01N 05°37' W 000°00'0 0.0
2017-Sep-22 01:30N 05°37' W 000°01'0 0.0
2017-Sep-22 01:00N 05°37' W 000°00'0 0.0
2017-Sep-22 00:30N 05°37' W 000°00'3 5.0
2017-Sep-22 00:00N 05°35' E 000°02'611.1
2017-Sep-21 23:31N 05°37' E 000°07'4 8.3
2017-Sep-21 23:01N 05°40' E 000°09'0 0.4
2017-Sep-21 22:30N 05°40' E 000°10'0 0.8
2017-Sep-21 22:01N 05°40' E 000°10'1 1.1
2017-Sep-21 21:30N 05°40' E 000°10'1 1.7
2017-Sep-21 21:00N 05°40' E 000°09'510.5
2017-Sep-21 20:30N 05°36' E 000°05'510.6
2017-Sep-21 20:01N 05°36' W 000°00'1 1.1
2017-Sep-21 19:31N 05°37' W 000°00'0 0.0
2017-Sep-21 19:01N 05°37' W 000°00'0 0.0
2017-Sep-21 18:30N 05°37' W 000°01'0 0.0
2017-Sep-21 18:00N 05°37' W 000°01'1 2.8
2017-Sep-21 17:30N 05°35' W 000°00'510.2
2017-Sep-21 17:01N 05°37' E 000°05'510.8
2017-Sep-21 16:30N 05°39' E 000°09'1 2.5
2017-Sep-21 16:01N 05°40' E 000°10'0 0.3
2017-Sep-21 15:31N 05°40' E 000°10'0 0.4
2017-Sep-21 15:01N 05°40' E 000°10'1 1.9
2017-Sep-21 14:31N 05°40' E 000°09'4 7.6
2017-Sep-21 14:00N 05°37' E 000°06'713.4
2017-Sep-21 13:30N 05°35' W 000°00'2 3.1
2017-Sep-21 13:00N 05°37' W 000°00'0 0.1
2017-Sep-21 12:30N 05°37' W 000°00'0 0.0
2017-Sep-21 12:00N 05°37' W 000°00'0 0.0
2017-Sep-21 11:30N 05°37' W 000°01'0 0.0
2017-Sep-21 11:00N 05°37' W 000°00'0 0.0
2017-Sep-21 10:30N 05°37' W 000°00'0 0.0
2017-Sep-21 10:00N 05°37' W 000°00'0 0.1
2017-Sep-21 09:30N 05°37' W 000°00'3 6.3
2017-Sep-21 09:00N 05°36' E 000°03'611.2
2017-Sep-21 08:30N 05°38' E 000°08'3 6.4
2017-Sep-21 08:00N 05°40' E 000°10'1 1.2
2017-Sep-21 07:30N 05°40' E 000°11'1 1.8
2017-Sep-21 07:00N 05°40' E 000°10'1 1.5
2017-Sep-21 06:30N 05°40' E 000°09'510.9
2017-Sep-21 06:00N 05°37' E 000°05'510.3
2017-Sep-21 05:30N 05°36' W 000°00'0 0.5
2017-Sep-21 05:00N 05°37' W 000°00'0 0.0
2017-Sep-21 04:30N 05°37' W 000°00'0 0.0
2017-Sep-21 04:00N 05°37' W 000°00'0 0.0
2017-Sep-21 03:30N 05°37' W 000°01'2 3.5
2017-Sep-21 03:00N 05°35' E 000°00'510.8
2017-Sep-21 02:30N 05°37' E 000°05'4 7.0
2017-Sep-21 02:00N 05°40' E 000°07'0 0.5
2017-Sep-21 01:30N 05°40' E 000°07'1 1.0
2017-Sep-21 01:00N 05°39' E 000°07'1 1.5
2017-Sep-21 00:30N 05°40' E 000°08'0 1.0
2017-Sep-21 00:00N 05°39' E 000°07'4 8.5
2017-Sep-20 23:31N 05°37' E 000°04'5 9.3
2017-Sep-20 23:00N 05°36' W 000°00'0 0.7
2017-Sep-20 22:30N 05°37' W 000°00'0 0.0
2017-Sep-20 22:01N 05°37' W 000°00'0 0.0
2017-Sep-20 21:31N 05°37' W 000°00'0 0.0
2017-Sep-20 21:01N 05°37' W 000°00'0 0.0
2017-Sep-20 20:30N 05°37' W 000°00'3 5.0
2017-Sep-20 20:00N 05°35' E 000°01'611.1
2017-Sep-20 19:31N 05°38' E 000°06'3 5.2
2017-Sep-20 19:00N 05°40' E 000°08'0 0.7
2017-Sep-20 18:31N 05°40' E 000°08'1 2.0
2017-Sep-20 18:01N 05°40' E 000°07'1 1.0
2017-Sep-20 17:30N 05°39' E 000°06'0 0.5
2017-Sep-20 17:00N 05°40' E 000°06'1 1.5
2017-Sep-20 16:30N 05°39' E 000°06'510.6
2017-Sep-20 16:01N 05°36' E 000°02'3 5.5
2017-Sep-20 15:30N 05°37' W 000°01'0 0.0
2017-Sep-20 15:01N 05°37' W 000°00'0 0.0
2017-Sep-20 14:01N 05°37' W 000°01'1 1.1
2017-Sep-20 13:31N 05°36' W 000°00'4 8.2
2017-Sep-20 13:01N 05°36' E 000°04'510.9
2017-Sep-20 12:30N 05°39' E 000°09'2 3.6
2017-Sep-20 12:00N 05°40' E 000°10'1 1.0
2017-Sep-20 11:30N 05°40' E 000°10'1 1.1
2017-Sep-20 11:01N 05°40' E 000°10'0 0.7
2017-Sep-20 10:31N 05°40' E 000°10'1 1.8
2017-Sep-20 10:01N 05°39' E 000°09'714.1
2017-Sep-20 09:31N 05°36' E 000°03'3 7.0
2017-Sep-20 09:00N 05°37' W 000°00'0 0.0
2017-Sep-20 08:30N 05°37' W 000°00'0 0.0
2017-Sep-20 08:00N 05°37' W 000°00'0 0.0
2017-Sep-20 07:30N 05°37' W 000°01'0 0.0
2017-Sep-20 07:00N 05°37' W 000°01'2 4.1
2017-Sep-20 06:30N 05°35' E 000°01'611.1
2017-Sep-20 06:00N 05°37' E 000°06'4 9.0
2017-Sep-20 05:30N 05°40' E 000°09'0 0.9
2017-Sep-20 05:00N 05°40' E 000°10'1 1.2
2017-Sep-20 04:30N 05°40' E 000°10'1 1.7
2017-Sep-20 04:00N 05°40' E 000°09'1 1.7
2017-Sep-20 03:30N 05°40' E 000°09'5 9.2
2017-Sep-20 03:00N 05°37' E 000°05'510.3
2017-Sep-20 02:30N 05°36' W 000°00'1 1.1
2017-Sep-20 02:00N 05°37' W 000°00'0 0.0
2017-Sep-20 01:31N 05°37' W 000°00'0 0.0
2017-Sep-20 01:00N 05°37' W 000°01'0 0.0
2017-Sep-20 00:31N 05°37' W 000°01'2 3.4
2017-Sep-20 00:01N 05°35' E 000°00'510.6
2017-Sep-19 23:31N 05°37' E 000°05'3 6.8
2017-Sep-19 23:01N 05°40' E 000°07'0 0.4
2017-Sep-19 22:31N 05°40' E 000°08'0 0.3
2017-Sep-19 22:00N 05°40' E 000°08'0 0.6
2017-Sep-19 21:30N 05°40' E 000°08'1 1.5
2017-Sep-19 21:00N 05°39' E 000°07'510.8
2017-Sep-19 20:30N 05°36' E 000°03'3 6.6
2017-Sep-19 20:00N 05°37' W 000°00'0 0.0
2017-Sep-19 19:30N 05°37' W 000°00'0 0.0
2017-Sep-19 19:00N 05°37' W 000°01'0 0.0
2017-Sep-19 18:30N 05°37' W 000°00'0 0.0
2017-Sep-19 18:00N 05°37' W 000°00'1 2.8
2017-Sep-19 17:31N 05°35' W 000°00'510.0
2017-Sep-19 17:00N 05°37' E 000°05'5 9.5
2017-Sep-19 16:30N 05°40' E 000°08'0 0.0
2017-Sep-19 16:00N 05°40' E 000°08'0 0.3
2017-Sep-19 15:30N 05°40' E 000°08'0 0.5
2017-Sep-19 15:00N 05°40' E 000°08'0 0.5
2017-Sep-19 14:30N 05°40' E 000°09'2 4.5
2017-Sep-19 14:00N 05°38' E 000°07'714.1
2017-Sep-19 13:30N 05°35' E 000°01'2 4.3
2017-Sep-19 13:00N 05°37' W 000°00'0 0.0
2017-Sep-19 12:30N 05°37' W 000°00'0 0.0
2017-Sep-19 12:00N 05°37' W 000°00'0 0.0
2017-Sep-19 11:30N 05°37' W 000°00'1 2.1
2017-Sep-19 11:00N 05°36' W 000°00'5 9.7
2017-Sep-19 10:30N 05°37' E 000°05'510.9
2017-Sep-19 10:00N 05°39' E 000°09'1 1.7
2017-Sep-19 09:31N 05°40' E 000°10'0 0.6
2017-Sep-19 09:00N 05°40' E 000°10'0 0.4
2017-Sep-19 08:31N 05°40' E 000°10'1 1.3
2017-Sep-19 08:00N 05°40' E 000°10'0 0.9
2017-Sep-19 07:30N 05°40' E 000°09'612.4
2017-Sep-19 07:00N 05°37' E 000°04'5 9.1
2017-Sep-19 06:30N 05°37' W 000°00'0 0.1
2017-Sep-19 06:00N 05°37' W 000°00'0 0.0
2017-Sep-19 05:30N 05°37' W 000°00'0 0.0
2017-Sep-19 05:00N 05°37' W 000°00'0 0.0
2017-Sep-19 04:30N 05°37' W 000°00'1 2.5
2017-Sep-19 04:00N 05°35' W 000°00'5 9.7
2017-Sep-19 03:30N 05°37' E 000°05'4 9.0
2017-Sep-19 03:01N 05°40' E 000°08'0 0.2
2017-Sep-19 02:30N 05°40' E 000°08'0 1.0
2017-Sep-19 02:00N 05°40' E 000°07'0 0.9
2017-Sep-19 01:30N 05°40' E 000°08'1 1.5
2017-Sep-19 01:00N 05°39' E 000°07'5 9.5
2017-Sep-19 00:30N 05°36' E 000°04'4 8.4
2017-Sep-19 00:01N 05°37' W 000°00'0 0.1
2017-Sep-18 23:30N 05°37' W 000°01'0 0.0
2017-Sep-18 23:00N 05°37' W 000°00'0 0.0
2017-Sep-18 22:30N 05°37' W 000°00'0 0.0
2017-Sep-18 22:00N 05°37' W 000°00'2 5.0
2017-Sep-18 21:30N 05°35' E 000°01'510.9
2017-Sep-18 21:00N 05°38' E 000°06'2 4.5
2017-Sep-18 20:30N 05°40' E 000°07'0 0.3
2017-Sep-18 20:01N 05°40' E 000°07'0 0.7
2017-Sep-18 19:30N 05°40' E 000°08'0 0.6
2017-Sep-18 19:00N 05°40' E 000°08'0 0.8
2017-Sep-18 18:30N 05°40' E 000°08'4 8.9
2017-Sep-18 18:00N 05°37' E 000°05'5 9.8
2017-Sep-18 17:30N 05°37' W 000°00'0 0.4
2017-Sep-18 17:01N 05°37' W 000°01'0 0.0
2017-Sep-18 16:30N 05°37' W 000°01'0 0.0
2017-Sep-18 16:00N 05°37' W 000°01'0 0.0
2017-Sep-18 15:31N 05°37' W 000°00'0 0.8
2017-Sep-18 15:01N 05°36' W 000°00'4 7.4
2017-Sep-18 14:31N 05°36' E 000°04'5 9.9
2017-Sep-18 14:01N 05°39' E 000°08'1 1.7
2017-Sep-18 13:30N 05°40' E 000°08'0 0.4
2017-Sep-18 13:01N 05°40' E 000°08'0 1.0
2017-Sep-18 12:31N 05°40' E 000°08'1 2.3
2017-Sep-18 12:01N 05°39' E 000°08'4 8.9
2017-Sep-18 11:30N 05°37' E 000°04'3 7.0
2017-Sep-18 11:00N 05°37' E 000°01'1 1.5
2017-Sep-18 10:31N 05°37' W 000°00'1 1.5
2017-Sep-18 10:01N 05°37' E 000°01'0 0.4
2017-Sep-18 09:30N 05°37' E 000°00'2 3.4
2017-Sep-18 09:00N 05°35' W 000°00'1 2.0
2017-Sep-18 08:31N 05°35' E 000°01'0 0.0
2017-Sep-18 08:01N 05°35' E 000°01'0 0.0
2017-Sep-18 07:30N 05°35' E 000°01'0 0.0
2017-Sep-18 07:01N 05°35' E 000°01'0 0.0
2017-Sep-18 06:31N 05°35' E 000°01'0 0.0
2017-Sep-18 06:00N 05°35' E 000°01'0 0.0
2017-Sep-18 05:30N 05°35' E 000°01'0 0.0
2017-Sep-18 05:01N 05°35' E 000°01'0 0.0
2017-Sep-18 04:30N 05°35' E 000°01'0 0.0
2017-Sep-18 04:01N 05°35' E 000°01'0 0.0
2017-Sep-18 03:31N 05°35' E 000°01'0 0.0
2017-Sep-18 03:00N 05°35' E 000°01'0 0.0
2017-Sep-18 02:30N 05°35' E 000°01'0 0.0
2017-Sep-18 02:01N 05°35' E 000°01'0 0.0
2017-Sep-18 01:31N 05°35' E 000°01'0 0.0
2017-Sep-18 01:01N 05°35' E 000°01'0 0.0
2017-Sep-18 00:30N 05°35' E 000°01'0 0.0
2017-Sep-18 00:01N 05°35' E 000°01'0 0.0
2017-Sep-17 23:30N 05°35' E 000°01'0 0.0
2017-Sep-17 23:00N 05°35' E 000°01'0 0.0
2017-Sep-17 22:30N 05°35' E 000°01'0 0.0
2017-Sep-17 22:01N 05°35' E 000°01'0 0.0
2017-Sep-17 21:31N 05°35' E 000°01'2 3.2
2017-Sep-17 21:00N 05°36' W 000°00'1 2.2
2017-Sep-17 20:30N 05°37' E 000°01'0 0.3
2017-Sep-17 20:01N 05°37' E 000°00'0 0.6
2017-Sep-17 19:30N 05°37' E 000°00'1 1.1
2017-Sep-17 19:01N 05°37' E 000°01'1 1.3
2017-Sep-17 18:31N 05°37' W 000°00'1 1.5
2017-Sep-17 18:01N 05°37' E 000°01'1 1.8
2017-Sep-17 17:31N 05°37' W 000°00'1 1.5
2017-Sep-17 17:01N 05°37' E 000°01'1 1.0
2017-Sep-17 16:31N 05°37' E 000°00'3 5.5
2017-Sep-17 16:01N 05°35' E 000°02'1 1.9
2017-Sep-17 15:31N 05°35' E 000°01'2 4.3
2017-Sep-17 15:00N 05°37' E 000°00'0 0.7
2017-Sep-17 14:31N 05°37' E 000°00'0 0.8
2017-Sep-17 14:00N 05°37' E 000°00'0 0.2
2017-Sep-17 13:30N 05°37' E 000°00'0 0.5
2017-Sep-17 13:00N 05°37' E 000°00'1 1.3
2017-Sep-17 12:31N 05°37' E 000°01'1 1.8
2017-Sep-17 12:00N 05°37' W 000°00'1 1.3
2017-Sep-17 11:31N 05°37' E 000°01'0 0.4
2017-Sep-17 11:01N 05°37' E 000°00'0 0.8
2017-Sep-17 10:30N 05°37' W 000°00'1 1.4
2017-Sep-17 10:01N 05°37' E 000°01'1 1.2
2017-Sep-17 09:30N 05°37' E 000°00'2 4.0
2017-Sep-17 09:01N 05°35' E 000°00'0 0.3
2017-Sep-17 08:31N 05°35' E 000°00'0 0.0
2017-Sep-17 08:00N 05°35' E 000°00'0 0.0
2017-Sep-17 07:31N 05°35' E 000°00'0 0.0
2017-Sep-17 07:00N 05°35' E 000°00'0 0.0
2017-Sep-17 06:30N 05°35' E 000°00'0 0.0
2017-Sep-17 06:00N 05°35' E 000°00'0 0.0
2017-Sep-17 05:31N 05°35' E 000°00'0 0.0
2017-Sep-17 05:01N 05°35' E 000°00'0 0.0
2017-Sep-17 04:30N 05°35' E 000°00'0 0.0
2017-Sep-17 04:00N 05°35' E 000°00'0 0.0
2017-Sep-17 03:31N 05°35' E 000°00'0 0.0
2017-Sep-17 03:01N 05°35' E 000°00'0 0.0
2017-Sep-17 02:30N 05°35' E 000°00'0 0.0
2017-Sep-17 02:00N 05°35' E 000°00'0 0.0
2017-Sep-17 01:31N 05°35' E 000°00'0 0.0
2017-Sep-17 01:01N 05°35' E 000°00'0 0.0
2017-Sep-17 00:30N 05°35' E 000°00'0 0.0
2017-Sep-17 00:01N 05°35' E 000°00'0 0.0
2017-Sep-16 23:30N 05°35' E 000°00'0 0.0
2017-Sep-16 23:00N 05°35' E 000°00'0 0.0
2017-Sep-16 22:31N 05°35' E 000°00'0 0.0
2017-Sep-16 22:00N 05°35' E 000°00'0 0.0
2017-Sep-16 21:30N 05°35' E 000°00'0 0.0
2017-Sep-16 21:01N 05°35' E 000°00'0 0.0
2017-Sep-16 20:30N 05°35' E 000°00'0 0.0
2017-Sep-16 20:01N 05°35' E 000°00'0 0.0
2017-Sep-16 19:30N 05°35' E 000°00'0 0.0
2017-Sep-16 19:01N 05°35' E 000°00'0 0.2
2017-Sep-16 18:30N 05°35' E 000°00'2 3.9
2017-Sep-16 18:00N 05°37' E 000°01'0 0.9
2017-Sep-16 17:31N 05°37' E 000°00'0 0.4
2017-Sep-16 17:01N 05°37' E 000°00'0 0.1
2017-Sep-16 16:31N 05°37' E 000°00'0 0.4
2017-Sep-16 16:00N 05°37' E 000°00'0 0.5
2017-Sep-16 15:31N 05°37' E 000°00'0 0.2
2017-Sep-16 15:01N 05°37' E 000°00'0 1.0
2017-Sep-16 14:30N 05°37' W 000°00'1 1.3
2017-Sep-16 14:00N 05°37' E 000°01'1 1.0
2017-Sep-16 13:31N 05°37' E 000°00'0 0.6
2017-Sep-16 13:00N 05°37' E 000°00'0 0.9
2017-Sep-16 12:30N 05°37' W 000°00'1 1.5
2017-Sep-16 12:01N 05°37' E 000°01'1 1.1
2017-Sep-16 11:30N 05°37' E 000°00'1 1.2
2017-Sep-16 11:01N 05°37' E 000°01'2 3.7
2017-Sep-16 10:30N 05°35' E 000°01'2 4.4
2017-Sep-16 10:00N 05°35' E 000°03'4 7.2
2017-Sep-16 09:30N 05°36' W 000°00'1 2.0
2017-Sep-16 09:00N 05°37' E 000°01'1 1.9
2017-Sep-16 08:30N 05°37' W 000°00'1 1.3
2017-Sep-16 08:01N 05°37' E 000°00'0 0.2
2017-Sep-16 07:31N 05°37' E 000°00'0 0.9
2017-Sep-16 07:00N 05°37' W 000°00'1 1.6
2017-Sep-16 06:30N 05°37' E 000°01'1 1.7
2017-Sep-16 06:01N 05°37' W 000°00'1 1.1
2017-Sep-16 05:30N 05°37' W 000°01'0 0.0
2017-Sep-16 05:01N 05°37' W 000°01'0 0.0
2017-Sep-16 04:31N 05°37' W 000°01'0 0.0
2017-Sep-16 04:00N 05°37' W 000°01'0 0.0
2017-Sep-16 03:30N 05°37' W 000°01'0 0.1
2017-Sep-16 03:01N 05°37' W 000°01'0 0.0
2017-Sep-16 02:30N 05°37' W 000°01'0 0.0
2017-Sep-16 02:01N 05°37' W 000°01'2 4.6
2017-Sep-16 01:31N 05°35' E 000°01'510.9
2017-Sep-16 01:00N 05°38' E 000°06'3 6.0
2017-Sep-16 00:31N 05°40' E 000°08'0 0.7
2017-Sep-16 00:01N 05°40' E 000°08'0 0.2
2017-Sep-15 23:30N 05°40' E 000°08'0 0.5
2017-Sep-15 23:00N 05°40' E 000°08'1 1.3
2017-Sep-15 22:30N 05°39' E 000°07'2 4.1
2017-Sep-15 22:00N 05°38' E 000°06'713.1
2017-Sep-15 21:30N 05°35' E 000°00'2 3.5
2017-Sep-15 21:01N 05°37' W 000°01'0 0.0
2017-Sep-15 20:30N 05°37' W 000°01'0 0.0
2017-Sep-15 20:00N 05°37' W 000°01'0 0.0
2017-Sep-15 19:31N 05°37' W 000°01'0 0.0
2017-Sep-15 19:01N 05°37' W 000°01'0 0.0
2017-Sep-15 18:30N 05°37' W 000°01'0 0.0
2017-Sep-15 18:01N 05°37' W 000°01'0 0.1
2017-Sep-15 17:30N 05°37' W 000°01'3 6.7
2017-Sep-15 17:01N 05°36' E 000°03'510.7
2017-Sep-15 16:31N 05°39' E 000°07'1 1.6
2017-Sep-15 16:00N 05°40' E 000°08'1 1.3
2017-Sep-15 15:31N 05°40' E 000°08'0 0.6
2017-Sep-15 15:00N 05°40' E 000°08'0 1.0
2017-Sep-15 14:30N 05°40' E 000°08'1 2.8
2017-Sep-15 14:00N 05°39' E 000°07'612.9
2017-Sep-15 13:30N 05°36' E 000°02'3 5.2
2017-Sep-15 13:01N 05°37' W 000°00'0 0.5
2017-Sep-15 12:30N 05°37' W 000°01'0 0.0
2017-Sep-15 12:00N 05°37' W 000°01'0 0.0
2017-Sep-15 11:31N 05°37' W 000°01'0 0.0
2017-Sep-15 11:01N 05°37' W 000°01'0 0.0
2017-Sep-15 10:31N 05°37' W 000°01'0 0.8
2017-Sep-15 10:01N 05°37' W 000°00'1 2.2
2017-Sep-15 09:31N 05°36' W 000°00'2 3.7
2017-Sep-15 09:01N 05°35' E 000°02'3 6.6
2017-Sep-15 08:31N 05°36' E 000°05'4 7.5
2017-Sep-15 08:00N 05°38' E 000°08'2 5.0
2017-Sep-15 07:30N 05°40' E 000°10'1 1.9
2017-Sep-15 07:00N 05°41' E 000°11'1 1.4
2017-Sep-15 06:31N 05°40' E 000°10'1 1.1
2017-Sep-15 06:00N 05°40' E 000°09'  
Track history (hours):
 
Tides and Currents Weather Stations Pressure Air Temp Water Temp Dewpoint Dewpoint Depression Visibility Wind Speed Wind Dir Waves Ship Positions

Jun Ma 2

Last reported at 2017-Sep-25 05:58 UTC. Time now 2017-Sep-25 06:19 UTC.
Position N 05°38' E 000°01'.

Length 87 m.

MMSI: 412052630.

Date/timePositionNaut miles runAvg speedWind from/ knotsBaromVisibWave heightAir tempDewpointWater temp
2017-Sep-25 05:58N 05°38' E 000°01'0 0.0
2017-Sep-25 05:28N 05°38' E 000°01'0 0.0
2017-Sep-25 04:58N 05°38' E 000°01'0 0.0
2017-Sep-25 04:28N 05°38' E 000°01'0 0.0
2017-Sep-25 03:58N 05°38' E 000°01'0 0.0
2017-Sep-25 03:28N 05°38' E 000°01'0 0.0
2017-Sep-25 02:58N 05°38' E 000°01'0 0.0
2017-Sep-25 02:28N 05°38' E 000°01'0 0.0
2017-Sep-25 01:58N 05°38' E 000°01'0 0.0
2017-Sep-25 01:28N 05°38' E 000°01'0 0.0
2017-Sep-25 00:58N 05°38' E 000°01'0 0.0
2017-Sep-25 00:28N 05°38' E 000°01'0 0.0
2017-Sep-24 23:58N 05°38' E 000°01'0 0.0
2017-Sep-24 23:28N 05°38' E 000°01'0 0.0
2017-Sep-24 22:58N 05°38' E 000°01'0 0.0
2017-Sep-24 22:25N 05°38' E 000°01'0 0.0
2017-Sep-24 21:58N 05°38' E 000°01'0 0.0
2017-Sep-24 21:28N 05°38' E 000°01'0 0.0
2017-Sep-24 20:58N 05°38' E 000°01'0 0.0
2017-Sep-24 20:28N 05°38' E 000°01'0 0.0
2017-Sep-24 19:58N 05°38' E 000°01'0 0.0
2017-Sep-24 19:28N 05°38' E 000°01'0 0.0
2017-Sep-24 18:58N 05°38' E 000°01'0 0.0
2017-Sep-24 18:28N 05°38' E 000°01'0 0.0
2017-Sep-24 17:58N 05°38' E 000°01'0 0.0
2017-Sep-24 17:28N 05°38' E 000°01'0 0.0
2017-Sep-24 16:58N 05°38' E 000°01'0 0.0
2017-Sep-24 16:28N 05°38' E 000°01'0 0.0
2017-Sep-24 15:58N 05°38' E 000°01'0 0.0
2017-Sep-24 15:28N 05°38' E 000°01'0 0.0
2017-Sep-24 14:58N 05°38' E 000°01'0 0.0
2017-Sep-24 14:28N 05°38' E 000°01'0 0.0
2017-Sep-24 13:58N 05°38' E 000°01'0 0.0
2017-Sep-24 13:28N 05°38' E 000°01'0 0.0
2017-Sep-24 12:58N 05°38' E 000°01'0 0.0
2017-Sep-24 12:28N 05°38' E 000°01'0 0.0
2017-Sep-24 11:58N 05°38' E 000°01'0 0.0
2017-Sep-24 11:28N 05°38' E 000°01'0 0.0
2017-Sep-24 10:58N 05°38' E 000°01'0 0.0
2017-Sep-24 10:28N 05°38' E 000°01'0 0.0
2017-Sep-24 09:58N 05°38' E 000°01'0 0.0
2017-Sep-24 09:28N 05°38' E 000°01'0 0.0
2017-Sep-24 08:58N 05°38' E 000°01'0 0.0
2017-Sep-24 08:28N 05°38' E 000°01'0 0.0
2017-Sep-24 07:58N 05°38' E 000°01'0 0.0
2017-Sep-24 07:28N 05°38' E 000°01'0 0.0
2017-Sep-24 06:58N 05°38' E 000°01'0 0.0
2017-Sep-24 06:28N 05°38' E 000°01'0 0.0
2017-Sep-24 05:58N 05°38' E 000°01'0 0.0
2017-Sep-24 05:28N 05°38' E 000°01'0 0.0
2017-Sep-24 04:58N 05°38' E 000°01'0 0.0
2017-Sep-24 04:28N 05°38' E 000°01'0 0.0
2017-Sep-24 03:58N 05°38' E 000°01'0 0.0
2017-Sep-24 03:28N 05°38' E 000°01'0 0.0
2017-Sep-24 02:58N 05°38' E 000°01'0 0.0
2017-Sep-24 02:28N 05°38' E 000°01'0 0.0
2017-Sep-24 01:58N 05°38' E 000°01'0 0.0
2017-Sep-24 01:28N 05°38' E 000°01'0 0.0
2017-Sep-24 00:58N 05°38' E 000°01'0 0.0
2017-Sep-24 00:28N 05°38' E 000°01'0 0.0
2017-Sep-23 23:58N 05°38' E 000°01'0 0.0
2017-Sep-23 23:28N 05°38' E 000°01'0 0.0
2017-Sep-23 22:58N 05°38' E 000°01'0 0.0
2017-Sep-23 22:28N 05°38' E 000°01'0 0.0
2017-Sep-23 21:58N 05°38' E 000°01'0 0.0
2017-Sep-23 21:28N 05°38' E 000°01'0 0.0
2017-Sep-23 20:58N 05°38' E 000°01'0 0.0
2017-Sep-23 20:28N 05°38' E 000°01'0 0.0
2017-Sep-23 19:58N 05°38' E 000°01'2 0.0
2017-Sep-22 02:01N 05°37' W 000°00'0 0.0
2017-Sep-22 01:30N 05°37' W 000°01'0 0.0
2017-Sep-22 01:00N 05°37' W 000°00'0 0.0
2017-Sep-22 00:30N 05°37' W 000°00'3 5.0
2017-Sep-22 00:00N 05°35' E 000°02'611.1
2017-Sep-21 23:31N 05°37' E 000°07'4 8.3
2017-Sep-21 23:01N 05°40' E 000°09'0 0.4
2017-Sep-21 22:30N 05°40' E 000°10'0 0.8
2017-Sep-21 22:01N 05°40' E 000°10'1 1.1
2017-Sep-21 21:30N 05°40' E 000°10'1 1.7
2017-Sep-21 21:00N 05°40' E 000°09'510.5
2017-Sep-21 20:30N 05°36' E 000°05'510.6
2017-Sep-21 20:01N 05°36' W 000°00'1 1.1
2017-Sep-21 19:31N 05°37' W 000°00'0 0.0
2017-Sep-21 19:01N 05°37' W 000°00'0 0.0
2017-Sep-21 18:30N 05°37' W 000°01'0 0.0
2017-Sep-21 18:00N 05°37' W 000°01'1 2.8
2017-Sep-21 17:30N 05°35' W 000°00'510.2
2017-Sep-21 17:01N 05°37' E 000°05'510.8
2017-Sep-21 16:30N 05°39' E 000°09'1 2.5
2017-Sep-21 16:01N 05°40' E 000°10'0 0.3
2017-Sep-21 15:31N 05°40' E 000°10'0 0.4
2017-Sep-21 15:01N 05°40' E 000°10'1 1.9
2017-Sep-21 14:31N 05°40' E 000°09'4 7.6
2017-Sep-21 14:00N 05°37' E 000°06'713.4
2017-Sep-21 13:30N 05°35' W 000°00'2 3.1
2017-Sep-21 13:00N 05°37' W 000°00'0 0.1
2017-Sep-21 12:30N 05°37' W 000°00'0 0.0
2017-Sep-21 12:00N 05°37' W 000°00'0 0.0
2017-Sep-21 11:30N 05°37' W 000°01'0 0.0
2017-Sep-21 11:00N 05°37' W 000°00'0 0.0
2017-Sep-21 10:30N 05°37' W 000°00'0 0.0
2017-Sep-21 10:00N 05°37' W 000°00'0 0.1
2017-Sep-21 09:30N 05°37' W 000°00'3 6.3
2017-Sep-21 09:00N 05°36' E 000°03'611.2
2017-Sep-21 08:30N 05°38' E 000°08'3 6.4
2017-Sep-21 08:00N 05°40' E 000°10'1 1.2
2017-Sep-21 07:30N 05°40' E 000°11'1 1.8
2017-Sep-21 07:00N 05°40' E 000°10'1 1.5
2017-Sep-21 06:30N 05°40' E 000°09'510.9
2017-Sep-21 06:00N 05°37' E 000°05'510.3
2017-Sep-21 05:30N 05°36' W 000°00'0 0.5
2017-Sep-21 05:00N 05°37' W 000°00'0 0.0
2017-Sep-21 04:30N 05°37' W 000°00'0 0.0
2017-Sep-21 04:00N 05°37' W 000°00'0 0.0
2017-Sep-21 03:30N 05°37' W 000°01'2 3.5
2017-Sep-21 03:00N 05°35' E 000°00'510.8
2017-Sep-21 02:30N 05°37' E 000°05'4 7.0
2017-Sep-21 02:00N 05°40' E 000°07'0 0.5
2017-Sep-21 01:30N 05°40' E 000°07'1 1.0
2017-Sep-21 01:00N 05°39' E 000°07'1 1.5
2017-Sep-21 00:30N 05°40' E 000°08'0 1.0
2017-Sep-21 00:00N 05°39' E 000°07'4 8.5
2017-Sep-20 23:31N 05°37' E 000°04'5 9.3
2017-Sep-20 23:00N 05°36' W 000°00'0 0.7
2017-Sep-20 22:30N 05°37' W 000°00'0 0.0
2017-Sep-20 22:01N 05°37' W 000°00'0 0.0
2017-Sep-20 21:31N 05°37' W 000°00'0 0.0
2017-Sep-20 21:01N 05°37' W 000°00'0 0.0
2017-Sep-20 20:30N 05°37' W 000°00'3 5.0
2017-Sep-20 20:00N 05°35' E 000°01'611.1
2017-Sep-20 19:31N 05°38' E 000°06'3 5.2
2017-Sep-20 19:00N 05°40' E 000°08'0 0.7
2017-Sep-20 18:31N 05°40' E 000°08'1 2.0
2017-Sep-20 18:01N 05°40' E 000°07'1 1.0
2017-Sep-20 17:30N 05°39' E 000°06'0 0.5
2017-Sep-20 17:00N 05°40' E 000°06'1 1.5
2017-Sep-20 16:30N 05°39' E 000°06'510.6
2017-Sep-20 16:01N 05°36' E 000°02'3 5.5
2017-Sep-20 15:30N 05°37' W 000°01'0 0.0
2017-Sep-20 15:01N 05°37' W 000°00'0 0.0
2017-Sep-20 14:01N 05°37' W 000°01'1 1.1
2017-Sep-20 13:31N 05°36' W 000°00'4 8.2
2017-Sep-20 13:01N 05°36' E 000°04'510.9
2017-Sep-20 12:30N 05°39' E 000°09'2 3.6
2017-Sep-20 12:00N 05°40' E 000°10'1 1.0
2017-Sep-20 11:30N 05°40' E 000°10'1 1.1
2017-Sep-20 11:01N 05°40' E 000°10'0 0.7
2017-Sep-20 10:31N 05°40' E 000°10'1 1.8
2017-Sep-20 10:01N 05°39' E 000°09'714.1
2017-Sep-20 09:31N 05°36' E 000°03'3 7.0
2017-Sep-20 09:00N 05°37' W 000°00'0 0.0
2017-Sep-20 08:30N 05°37' W 000°00'0 0.0
2017-Sep-20 08:00N 05°37' W 000°00'0 0.0
2017-Sep-20 07:30N 05°37' W 000°01'0 0.0
2017-Sep-20 07:00N 05°37' W 000°01'2 4.1
2017-Sep-20 06:30N 05°35' E 000°01'611.1
2017-Sep-20 06:00N 05°37' E 000°06'4 9.0
2017-Sep-20 05:30N 05°40' E 000°09'0 0.9
2017-Sep-20 05:00N 05°40' E 000°10'1 1.2
2017-Sep-20 04:30N 05°40' E 000°10'1 1.7
2017-Sep-20 04:00N 05°40' E 000°09'1 1.7
2017-Sep-20 03:30N 05°40' E 000°09'5 9.2
2017-Sep-20 03:00N 05°37' E 000°05'510.3
2017-Sep-20 02:30N 05°36' W 000°00'1 1.1
2017-Sep-20 02:00N 05°37' W 000°00'0 0.0
2017-Sep-20 01:31N 05°37' W 000°00'0 0.0
2017-Sep-20 01:00N 05°37' W 000°01'0 0.0
2017-Sep-20 00:31N 05°37' W 000°01'2 3.4
2017-Sep-20 00:01N 05°35' E 000°00'510.6
2017-Sep-19 23:31N 05°37' E 000°05'3 6.8
2017-Sep-19 23:01N 05°40' E 000°07'0 0.4
2017-Sep-19 22:31N 05°40' E 000°08'0 0.3
2017-Sep-19 22:00N 05°40' E 000°08'0 0.6
2017-Sep-19 21:30N 05°40' E 000°08'1 1.5
2017-Sep-19 21:00N 05°39' E 000°07'510.8
2017-Sep-19 20:30N 05°36' E 000°03'3 6.6
2017-Sep-19 20:00N 05°37' W 000°00'0 0.0
2017-Sep-19 19:30N 05°37' W 000°00'0 0.0
2017-Sep-19 19:00N 05°37' W 000°01'0 0.0
2017-Sep-19 18:30N 05°37' W 000°00'0 0.0
2017-Sep-19 18:00N 05°37' W 000°00'1 2.8
2017-Sep-19 17:31N 05°35' W 000°00'510.0
2017-Sep-19 17:00N 05°37' E 000°05'5 9.5
2017-Sep-19 16:30N 05°40' E 000°08'0 0.0
2017-Sep-19 16:00N 05°40' E 000°08'0 0.3
2017-Sep-19 15:30N 05°40' E 000°08'0 0.5
2017-Sep-19 15:00N 05°40' E 000°08'0 0.5
2017-Sep-19 14:30N 05°40' E 000°09'2 4.5
2017-Sep-19 14:00N 05°38' E 000°07'714.1
2017-Sep-19 13:30N 05°35' E 000°01'2 4.3
2017-Sep-19 13:00N 05°37' W 000°00'0 0.0
2017-Sep-19 12:30N 05°37' W 000°00'0 0.0
2017-Sep-19 12:00N 05°37' W 000°00'0 0.0
2017-Sep-19 11:30N 05°37' W 000°00'1 2.1
2017-Sep-19 11:00N 05°36' W 000°00'5 9.7
2017-Sep-19 10:30N 05°37' E 000°05'510.9
2017-Sep-19 10:00N 05°39' E 000°09'1 1.7
2017-Sep-19 09:31N 05°40' E 000°10'0 0.6
2017-Sep-19 09:00N 05°40' E 000°10'0 0.4
2017-Sep-19 08:31N 05°40' E 000°10'1 1.3
2017-Sep-19 08:00N 05°40' E 000°10'0 0.9
2017-Sep-19 07:30N 05°40' E 000°09'612.4
2017-Sep-19 07:00N 05°37' E 000°04'5 9.1
2017-Sep-19 06:30N 05°37' W 000°00'0 0.1
2017-Sep-19 06:00N 05°37' W 000°00'0 0.0
2017-Sep-19 05:30N 05°37' W 000°00'0 0.0
2017-Sep-19 05:00N 05°37' W 000°00'0 0.0
2017-Sep-19 04:30N 05°37' W 000°00'1 2.5
2017-Sep-19 04:00N 05°35' W 000°00'5 9.7
2017-Sep-19 03:30N 05°37' E 000°05'4 9.0
2017-Sep-19 03:01N 05°40' E 000°08'0 0.2
2017-Sep-19 02:30N 05°40' E 000°08'0 1.0
2017-Sep-19 02:00N 05°40' E 000°07'0 0.9
2017-Sep-19 01:30N 05°40' E 000°08'1 1.5
2017-Sep-19 01:00N 05°39' E 000°07'5 9.5
2017-Sep-19 00:30N 05°36' E 000°04'4 8.4
2017-Sep-19 00:01N 05°37' W 000°00'0 0.1
2017-Sep-18 23:30N 05°37' W 000°01'0 0.0
2017-Sep-18 23:00N 05°37' W 000°00'0 0.0
2017-Sep-18 22:30N 05°37' W 000°00'0 0.0
2017-Sep-18 22:00N 05°37' W 000°00'2 5.0
2017-Sep-18 21:30N 05°35' E 000°01'510.9
2017-Sep-18 21:00N 05°38' E 000°06'2 4.5
2017-Sep-18 20:30N 05°40' E 000°07'0 0.3
2017-Sep-18 20:01N 05°40' E 000°07'0 0.7
2017-Sep-18 19:30N 05°40' E 000°08'0 0.6
2017-Sep-18 19:00N 05°40' E 000°08'0 0.8
2017-Sep-18 18:30N 05°40' E 000°08'4 8.9
2017-Sep-18 18:00N 05°37' E 000°05'5 9.8
2017-Sep-18 17:30N 05°37' W 000°00'0 0.4
2017-Sep-18 17:01N 05°37' W 000°01'0 0.0
2017-Sep-18 16:30N 05°37' W 000°01'0 0.0
2017-Sep-18 16:00N 05°37' W 000°01'0 0.0
2017-Sep-18 15:31N 05°37' W 000°00'0 0.8
2017-Sep-18 15:01N 05°36' W 000°00'4 7.4
2017-Sep-18 14:31N 05°36' E 000°04'5 9.9
2017-Sep-18 14:01N 05°39' E 000°08'1 1.7
2017-Sep-18 13:30N 05°40' E 000°08'0 0.4
2017-Sep-18 13:01N 05°40' E 000°08'0 1.0
2017-Sep-18 12:31N 05°40' E 000°08'1 2.3
2017-Sep-18 12:01N 05°39' E 000°08'4 8.9
2017-Sep-18 11:30N 05°37' E 000°04'3 7.0
2017-Sep-18 11:00N 05°37' E 000°01'1 1.5
2017-Sep-18 10:31N 05°37' W 000°00'1 1.5
2017-Sep-18 10:01N 05°37' E 000°01'0 0.4
2017-Sep-18 09:30N 05°37' E 000°00'2 3.4
2017-Sep-18 09:00N 05°35' W 000°00'1 2.0
2017-Sep-18 08:31N 05°35' E 000°01'0 0.0
2017-Sep-18 08:01N 05°35' E 000°01'0 0.0
2017-Sep-18 07:30N 05°35' E 000°01'0 0.0
2017-Sep-18 07:01N 05°35' E 000°01'0 0.0
2017-Sep-18 06:31N 05°35' E 000°01'0 0.0
2017-Sep-18 06:00N 05°35' E 000°01'0 0.0
2017-Sep-18 05:30N 05°35' E 000°01'0 0.0
2017-Sep-18 05:01N 05°35' E 000°01'0 0.0
2017-Sep-18 04:30N 05°35' E 000°01'0 0.0
2017-Sep-18 04:01N 05°35' E 000°01'0 0.0
2017-Sep-18 03:31N 05°35' E 000°01'0 0.0
2017-Sep-18 03:00N 05°35' E 000°01'0 0.0
2017-Sep-18 02:30N 05°35' E 000°01'0 0.0
2017-Sep-18 02:01N 05°35' E 000°01'0 0.0
2017-Sep-18 01:31N 05°35' E 000°01'0 0.0
2017-Sep-18 01:01N 05°35' E 000°01'0 0.0
2017-Sep-18 00:30N 05°35' E 000°01'0 0.0
2017-Sep-18 00:01N 05°35' E 000°01'0 0.0
2017-Sep-17 23:30N 05°35' E 000°01'0 0.0
2017-Sep-17 23:00N 05°35' E 000°01'0 0.0
2017-Sep-17 22:30N 05°35' E 000°01'0 0.0
2017-Sep-17 22:01N 05°35' E 000°01'0 0.0
2017-Sep-17 21:31N 05°35' E 000°01'2 3.2
2017-Sep-17 21:00N 05°36' W 000°00'1 2.2
2017-Sep-17 20:30N 05°37' E 000°01'0 0.3
2017-Sep-17 20:01N 05°37' E 000°00'0 0.6
2017-Sep-17 19:30N 05°37' E 000°00'1 1.1
2017-Sep-17 19:01N 05°37' E 000°01'1 1.3
2017-Sep-17 18:31N 05°37' W 000°00'1 1.5
2017-Sep-17 18:01N 05°37' E 000°01'1 1.8
2017-Sep-17 17:31N 05°37' W 000°00'1 1.5
2017-Sep-17 17:01N 05°37' E 000°01'1 1.0
2017-Sep-17 16:31N 05°37' E 000°00'3 5.5
2017-Sep-17 16:01N 05°35' E 000°02'1 1.9
2017-Sep-17 15:31N 05°35' E 000°01'2 4.3
2017-Sep-17 15:00N 05°37' E 000°00'0 0.7
2017-Sep-17 14:31N 05°37' E 000°00'0 0.8
2017-Sep-17 14:00N 05°37' E 000°00'0 0.2
2017-Sep-17 13:30N 05°37' E 000°00'0 0.5
2017-Sep-17 13:00N 05°37' E 000°00'1 1.3
2017-Sep-17 12:31N 05°37' E 000°01'1 1.8
2017-Sep-17 12:00N 05°37' W 000°00'1 1.3
2017-Sep-17 11:31N 05°37' E 000°01'0 0.4
2017-Sep-17 11:01N 05°37' E 000°00'0 0.8
2017-Sep-17 10:30N 05°37' W 000°00'1 1.4
2017-Sep-17 10:01N 05°37' E 000°01'1 1.2
2017-Sep-17 09:30N 05°37' E 000°00'2 4.0
2017-Sep-17 09:01N 05°35' E 000°00'0 0.3
2017-Sep-17 08:31N 05°35' E 000°00'0 0.0
2017-Sep-17 08:00N 05°35' E 000°00'0 0.0
2017-Sep-17 07:31N 05°35' E 000°00'0 0.0
2017-Sep-17 07:00N 05°35' E 000°00'0 0.0
2017-Sep-17 06:30N 05°35' E 000°00'0 0.0
2017-Sep-17 06:00N 05°35' E 000°00'0 0.0
2017-Sep-17 05:31N 05°35' E 000°00'0 0.0
2017-Sep-17 05:01N 05°35' E 000°00'0 0.0
2017-Sep-17 04:30N 05°35' E 000°00'0 0.0
2017-Sep-17 04:00N 05°35' E 000°00'0 0.0
2017-Sep-17 03:31N 05°35' E 000°00'0 0.0
2017-Sep-17 03:01N 05°35' E 000°00'0 0.0
2017-Sep-17 02:30N 05°35' E 000°00'0 0.0
2017-Sep-17 02:00N 05°35' E 000°00'0 0.0
2017-Sep-17 01:31N 05°35' E 000°00'0 0.0
2017-Sep-17 01:01N 05°35' E 000°00'0 0.0
2017-Sep-17 00:30N 05°35' E 000°00'0 0.0
2017-Sep-17 00:01N 05°35' E 000°00'0 0.0
2017-Sep-16 23:30N 05°35' E 000°00'0 0.0
2017-Sep-16 23:00N 05°35' E 000°00'0 0.0
2017-Sep-16 22:31N 05°35' E 000°00'0 0.0
2017-Sep-16 22:00N 05°35' E 000°00'0 0.0
2017-Sep-16 21:30N 05°35' E 000°00'0 0.0
2017-Sep-16 21:01N 05°35' E 000°00'0 0.0
2017-Sep-16 20:30N 05°35' E 000°00'0 0.0
2017-Sep-16 20:01N 05°35' E 000°00'0 0.0
2017-Sep-16 19:30N 05°35' E 000°00'0 0.0
2017-Sep-16 19:01N 05°35' E 000°00'0 0.2
2017-Sep-16 18:30N 05°35' E 000°00'2 3.9
2017-Sep-16 18:00N 05°37' E 000°01'0 0.9
2017-Sep-16 17:31N 05°37' E 000°00'0 0.4
2017-Sep-16 17:01N 05°37' E 000°00'0 0.1
2017-Sep-16 16:31N 05°37' E 000°00'0 0.4
2017-Sep-16 16:00N 05°37' E 000°00'0 0.5
2017-Sep-16 15:31N 05°37' E 000°00'0 0.2
2017-Sep-16 15:01N 05°37' E 000°00'0 1.0
2017-Sep-16 14:30N 05°37' W 000°00'1 1.3
2017-Sep-16 14:00N 05°37' E 000°01'1 1.0
2017-Sep-16 13:31N 05°37' E 000°00'0 0.6
2017-Sep-16 13:00N 05°37' E 000°00'0 0.9
2017-Sep-16 12:30N 05°37' W 000°00'1 1.5
2017-Sep-16 12:01N 05°37' E 000°01'1 1.1
2017-Sep-16 11:30N 05°37' E 000°00'1 1.2
2017-Sep-16 11:01N 05°37' E 000°01'2 3.7
2017-Sep-16 10:30N 05°35' E 000°01'2 4.4
2017-Sep-16 10:00N 05°35' E 000°03'4 7.2
2017-Sep-16 09:30N 05°36' W 000°00'1 2.0
2017-Sep-16 09:00N 05°37' E 000°01'1 1.9
2017-Sep-16 08:30N 05°37' W 000°00'1 1.3
2017-Sep-16 08:01N 05°37' E 000°00'0 0.2
2017-Sep-16 07:31N 05°37' E 000°00'0 0.9
2017-Sep-16 07:00N 05°37' W 000°00'1 1.6
2017-Sep-16 06:30N 05°37' E 000°01'1 1.7
2017-Sep-16 06:01N 05°37' W 000°00'1 1.1
2017-Sep-16 05:30N 05°37' W 000°01'0 0.0
2017-Sep-16 05:01N 05°37' W 000°01'0 0.0
2017-Sep-16 04:31N 05°37' W 000°01'0 0.0
2017-Sep-16 04:00N 05°37' W 000°01'0 0.0
2017-Sep-16 03:30N 05°37' W 000°01'0 0.1
2017-Sep-16 03:01N 05°37' W 000°01'0 0.0
2017-Sep-16 02:30N 05°37' W 000°01'0 0.0
2017-Sep-16 02:01N 05°37' W 000°01'2 4.6
2017-Sep-16 01:31N 05°35' E 000°01'510.9
2017-Sep-16 01:00N 05°38' E 000°06'3 6.0
2017-Sep-16 00:31N 05°40' E 000°08'0 0.7
2017-Sep-16 00:01N 05°40' E 000°08'0 0.2
2017-Sep-15 23:30N 05°40' E 000°08'0 0.5
2017-Sep-15 23:00N 05°40' E 000°08'1 1.3
2017-Sep-15 22:30N 05°39' E 000°07'2 4.1
2017-Sep-15 22:00N 05°38' E 000°06'713.1
2017-Sep-15 21:30N 05°35' E 000°00'2 3.5
2017-Sep-15 21:01N 05°37' W 000°01'0 0.0
2017-Sep-15 20:30N 05°37' W 000°01'0 0.0
2017-Sep-15 20:00N 05°37' W 000°01'0 0.0
2017-Sep-15 19:31N 05°37' W 000°01'0 0.0
2017-Sep-15 19:01N 05°37' W 000°01'0 0.0
2017-Sep-15 18:30N 05°37' W 000°01'0 0.0
2017-Sep-15 18:01N 05°37' W 000°01'0 0.1
2017-Sep-15 17:30N 05°37' W 000°01'3 6.7
2017-Sep-15 17:01N 05°36' E 000°03'510.7
2017-Sep-15 16:31N 05°39' E 000°07'1 1.6
2017-Sep-15 16:00N 05°40' E 000°08'1 1.3
2017-Sep-15 15:31N 05°40' E 000°08'0 0.6
2017-Sep-15 15:00N 05°40' E 000°08'0 1.0
2017-Sep-15 14:30N 05°40' E 000°08'1 2.8
2017-Sep-15 14:00N 05°39' E 000°07'612.9
2017-Sep-15 13:30N 05°36' E 000°02'3 5.2
2017-Sep-15 13:01N 05°37' W 000°00'0 0.5
2017-Sep-15 12:30N 05°37' W 000°01'0 0.0
2017-Sep-15 12:00N 05°37' W 000°01'0 0.0
2017-Sep-15 11:31N 05°37' W 000°01'0 0.0
2017-Sep-15 11:01N 05°37' W 000°01'0 0.0
2017-Sep-15 10:31N 05°37' W 000°01'0 0.8
2017-Sep-15 10:01N 05°37' W 000°00'1 2.2
2017-Sep-15 09:31N 05°36' W 000°00'2 3.7
2017-Sep-15 09:01N 05°35' E 000°02'3 6.6
2017-Sep-15 08:31N 05°36' E 000°05'4 7.5
2017-Sep-15 08:00N 05°38' E 000°08'2 5.0
2017-Sep-15 07:30N 05°40' E 000°10'1 1.9
2017-Sep-15 07:00N 05°41' E 000°11'1 1.4
2017-Sep-15 06:31N 05°40' E 000°10'1 1.1
2017-Sep-15 06:00N 05°40' E 000°09'  

Dump ship's entire track history